Weather at Pryor Field Regional Airport

Public forecast

Using degrees Fahrenheit for public forecast. Weather courtesy of forecast.io.

Current aviation weather report (METAR) for Pryor Field Regional Airport

Retrieved 2020/10/30 16:16 UTC (8 minutes ago):

KDCU 301616Z AUTO 01011KT 10SM OVC029 11/04 A3027 RMK AO2 T01060044

Closest aviation forecast (TAF) to Pryor Field Regional Airport

Closest forecast is Huntsville International Carl T Jones Field, 8.5 nm (15.7 km) E. Retrieved 2020/10/30 12:22 UTC (4 hours ago):

TAF KHSV 301120Z 3012/3112 35010KT P6SM OVC010 FM301500 36012G17KT P6SM FEW015 SCT050 FM302000 01011KT P6SM SCT250 FM310000 03006KT P6SM SKC